Time;durP1;ratioP1;P1;durP2;ratioP2;P2;SDS_P1;SDS_P2;PMS_P1;PMS_P2;Temp;Humidity;BMP_temperature;BMP_pressure;BME280_temperature;BME280_humidity;BME280_pressure;Samples;Min_cycle;Max_cycle;Signal;HPM_P1;HPM_P2
2022/09/28 00:01:50;;;;;;;1.20;1.10;;;10.70;99.90;;;;;;5052146;28;20269;-68
2022/09/28 00:04:15;;;;;;;1.43;1.10;;;10.70;99.90;;;;;;5052111;28;20429;-69
2022/09/28 00:06:41;;;;;;;1.20;1.00;;;10.80;99.90;;;;;;5053299;28;20468;-68
2022/09/28 00:09:07;;;;;;;2.07;1.40;;;10.90;99.90;;;;;;5053351;28;20540;-68
2022/09/28 00:11:32;;;;;;;2.37;1.40;;;10.90;99.90;;;;;;5053156;28;20188;-68
2022/09/28 00:14:02;;;;;;;1.93;0.90;;;10.90;99.90;;;;;;5053191;28;20175;-68
2022/09/28 00:16:30;;;;;;;3.10;1.10;;;10.70;99.90;;;;;;5051942;28;20172;-68
2022/09/28 00:18:56;;;;;;;2.30;1.10;;;10.70;99.90;;;;;;5053279;28;20405;-68
2022/09/28 00:21:28;;;;;;;3.27;1.00;;;10.50;99.90;;;;;;5051777;28;20461;-68
2022/09/28 00:24:11;;;;;;;3.30;1.63;;;10.50;99.90;;;;;;5064812;28;20976;-68
2022/09/28 00:26:48;;;;;;;2.30;1.40;;;10.60;99.90;;;;;;5051172;28;20534;-68
2022/09/28 00:29:25;;;;;;;1.30;1.20;;;10.60;99.90;;;;;;5053679;28;20389;-68
2022/09/28 00:31:58;;;;;;;3.67;1.30;;;10.60;99.90;;;;;;5052830;28;20425;-68
2022/09/28 00:34:30;;;;;;;1.70;1.10;;;10.70;99.90;;;;;;5053260;28;20476;-68
2022/09/28 00:36:57;;;;;;;1.93;1.30;;;10.70;99.90;;;;;;5053302;28;20721;-68
2022/09/28 00:39:22;;;;;;;1.83;1.57;;;10.70;99.90;;;;;;5050753;28;20448;-68
2022/09/28 00:41:48;;;;;;;1.37;1.07;;;10.80;99.90;;;;;;5052776;28;20799;-68
2022/09/28 00:44:38;;;;;;;1.93;1.40;;;10.70;99.90;;;;;;5051795;28;20170;-68
2022/09/28 00:47:20;;;;;;;1.80;1.30;;;10.80;99.90;;;;;;5051513;28;20195;-68
2022/09/28 00:49:58;;;;;;;2.20;1.10;;;10.80;99.90;;;;;;5053160;28;20880;-68
2022/09/28 00:52:54;;;;;;;3.53;1.20;;;10.90;99.90;;;;;;5052404;28;20416;-68
2022/09/28 00:55:45;;;;;;;2.60;1.30;;;10.90;99.90;;;;;;5052815;28;20481;-68
2022/09/28 00:58:18;;;;;;;1.90;1.50;;;10.70;99.90;;;;;;5046622;28;20407;-68
2022/09/28 01:00:43;;;;;;;1.60;1.10;;;10.70;99.90;;;;;;5051350;28;20432;-69
2022/09/28 01:03:09;;;;;;;2.80;1.33;;;10.70;99.90;;;;;;5051323;28;20428;-69
2022/09/28 01:05:35;;;;;;;1.13;1.03;;;10.70;99.90;;;;;;5051436;28;20216;-68
2022/09/28 01:08:02;;;;;;;1.83;1.13;;;10.80;99.90;;;;;;5052784;28;20455;-68
2022/09/28 01:10:30;;;;;;;1.20;1.10;;;10.80;99.90;;;;;;5051655;28;20859;-68
2022/09/28 01:12:56;;;;;;;1.40;1.30;;;10.90;99.90;;;;;;5052470;28;20432;-68
2022/09/28 01:15:24;;;;;;;1.67;1.10;;;10.80;99.90;;;;;;5052595;28;20401;-68
2022/09/28 01:17:57;;;;;;;2.50;1.30;;;10.90;99.90;;;;;;5052795;28;20417;-69
2022/09/28 01:20:32;;;;;;;2.60;1.20;;;10.80;99.90;;;;;;5051425;28;20828;-68
2022/09/28 01:23:05;;;;;;;2.17;1.17;;;10.90;99.90;;;;;;5056439;28;20452;-68
2022/09/28 01:25:54;;;;;;;1.20;1.00;;;10.90;99.90;;;;;;5073067;28;20506;-68
2022/09/28 01:28:27;;;;;;;1.30;0.97;;;11.00;99.90;;;;;;5072603;28;20459;-68
2022/09/28 01:31:11;;;;;;;1.40;1.07;;;10.80;99.90;;;;;;5072332;28;20400;-69
2022/09/28 01:33:47;;;;;;;1.87;1.03;;;11.00;99.90;;;;;;5071010;28;20457;-68
2022/09/28 01:36:24;;;;;;;1.33;0.90;;;11.00;99.90;;;;;;5071994;28;20393;-68
2022/09/28 01:39:00;;;;;;;2.70;1.00;;;11.10;99.90;;;;;;5068793;28;20783;-68
2022/09/28 01:41:29;;;;;;;1.77;1.23;;;11.10;99.90;;;;;;5052207;28;20918;-68
2022/09/28 01:43:58;;;;;;;3.63;1.20;;;11.10;99.90;;;;;;5052627;28;20412;-68
2022/09/28 01:46:29;;;;;;;2.10;1.20;;;11.10;99.90;;;;;;5052940;28;20452;-68
2022/09/28 01:49:08;;;;;;;2.10;1.10;;;11.10;99.90;;;;;;5052745;28;20383;-68
2022/09/28 01:51:54;;;;;;;3.33;0.90;;;11.20;99.90;;;;;;5051000;28;20431;-68
2022/09/28 01:54:33;;;;;;;4.87;1.30;;;11.20;99.90;;;;;;5052044;28;20386;-68
2022/09/28 01:57:13;;;;;;;1.57;0.93;;;11.20;99.90;;;;;;5052578;28;20896;-68
2022/09/28 01:59:47;;;;;;;1.50;0.90;;;11.20;99.90;;;;;;5052656;28;20867;-68
2022/09/28 02:02:17;;;;;;;6.60;1.37;;;11.20;99.90;;;;;;5052285;28;20468;-68
2022/09/28 02:04:51;;;;;;;3.60;1.10;;;11.20;99.90;;;;;;5054571;28;20395;-68
2022/09/28 02:07:25;;;;;;;4.33;1.43;;;11.20;99.90;;;;;;5056447;28;20436;-68
2022/09/28 02:10:06;;;;;;;2.40;1.53;;;11.20;99.90;;;;;;5056441;28;20485;-69
2022/09/28 02:13:03;;;;;;;5.10;1.43;;;11.30;99.90;;;;;;5055606;28;20430;-69
2022/09/28 02:15:41;;;;;;;3.20;1.27;;;11.30;99.90;;;;;;5039945;28;20418;-68
2022/09/28 02:18:08;;;;;;;2.60;1.40;;;11.30;99.90;;;;;;5056643;28;20385;-68
2022/09/28 02:20:37;;;;;;;2.90;1.40;;;11.30;99.90;;;;;;5056980;28;20733;-71
2022/09/28 02:23:04;;;;;;;2.87;1.27;;;11.40;99.90;;;;;;5073822;22;20496;-71
2022/09/28 02:25:41;;;;;;;3.30;1.90;;;11.40;99.90;;;;;;5071075;28;20406;-71
2022/09/28 02:28:10;;;;;;;3.87;1.50;;;11.40;99.90;;;;;;5058481;28;20446;-70
2022/09/28 02:30:38;;;;;;;2.90;1.20;;;11.40;99.90;;;;;;5056014;28;20491;-71
2022/09/28 02:33:32;;;;;;;5.77;1.43;;;11.30;99.90;;;;;;5072005;28;20416;-70
2022/09/28 02:35:59;;;;;;;5.50;1.60;;;11.30;99.90;;;;;;5070605;28;20508;-68
2022/09/28 02:38:25;;;;;;;4.10;1.60;;;11.30;99.90;;;;;;5074838;28;20429;-68
2022/09/28 02:41:12;;;;;;;3.67;1.30;;;11.40;99.90;;;;;;5075118;28;20466;-70
2022/09/28 02:44:01;;;;;;;3.73;1.90;;;11.50;99.90;;;;;;5076074;28;20862;-71
2022/09/28 02:46:48;;;;;;;5.07;1.90;;;11.50;99.90;;;;;;5074171;28;20448;-71
2022/09/28 02:49:32;;;;;;;2.70;1.47;;;11.40;99.90;;;;;;5075410;28;20381;-72
2022/09/28 02:52:09;;;;;;;2.03;1.43;;;11.40;99.90;;;;;;5075666;28;20424;-70
2022/09/28 02:54:58;;;;;;;2.93;1.77;;;11.30;99.90;;;;;;5075955;28;20434;-70
2022/09/28 02:57:40;;;;;;;3.10;1.33;;;11.30;99.90;;;;;;5075374;28;20564;-71
2022/09/28 03:00:19;;;;;;;5.30;1.53;;;11.30;99.90;;;;;;5075544;28;20400;-71
2022/09/28 03:03:22;;;;;;;2.97;1.70;;;11.40;99.90;;;;;;5076007;28;20434;-71
2022/09/28 03:06:09;;;;;;;3.87;1.50;;;11.40;99.90;;;;;;5075422;28;20383;-71
2022/09/28 03:08:46;;;;;;;2.97;1.60;;;11.40;99.90;;;;;;5075630;28;20750;-70
2022/09/28 03:11:19;;;;;;;2.73;1.57;;;11.40;99.90;;;;;;5075019;28;20381;-71
2022/09/28 03:13:44;;;;;;;6.57;2.40;;;11.50;99.90;;;;;;5074953;28;20409;-71
2022/09/28 03:16:13;;;;;;;5.43;1.40;;;11.40;99.90;;;;;;5074367;28;20483;-71
2022/09/28 03:18:39;;;;;;;4.37;1.70;;;11.30;99.90;;;;;;5074958;28;20628;-71
2022/09/28 03:21:05;;;;;;;2.70;1.10;;;11.50;99.90;;;;;;5075492;28;20399;-71
2022/09/28 03:23:31;;;;;;;2.73;1.27;;;11.50;99.90;;;;;;5075070;28;20225;-71
2022/09/28 03:25:56;;;;;;;2.00;0.93;;;11.50;99.90;;;;;;5074766;28;20405;-71
2022/09/28 03:28:22;;;;;;;6.03;1.60;;;11.60;99.90;;;;;;5075182;28;20350;-71
2022/09/28 03:30:48;;;;;;;3.90;1.10;;;11.80;99.90;;;;;;5074629;28;20251;-71
2022/09/28 03:33:14;;;;;;;3.70;1.80;;;11.60;99.90;;;;;;5073341;28;20186;-70
2022/09/28 03:35:39;;;;;;;1.90;1.23;;;11.60;99.90;;;;;;5074885;28;20418;-70
2022/09/28 03:38:05;;;;;;;4.23;1.67;;;11.40;99.90;;;;;;5075212;28;20174;-69
2022/09/28 03:40:30;;;;;;;2.50;1.37;;;11.50;99.90;;;;;;5073211;28;20171;-71
2022/09/28 03:42:56;;;;;;;2.80;1.00;;;11.50;99.90;;;;;;5074406;28;20199;-71
2022/09/28 03:45:22;;;;;;;5.33;1.70;;;11.60;99.90;;;;;;5075063;28;20570;-71
2022/09/28 03:47:47;;;;;;;4.70;2.33;;;11.70;99.90;;;;;;5074328;28;20194;-71
2022/09/28 03:50:13;;;;;;;3.00;1.53;;;11.70;99.90;;;;;;5074425;28;20158;-70
2022/09/28 03:52:39;;;;;;;4.47;2.03;;;11.60;99.90;;;;;;5074291;28;20193;-70
2022/09/28 03:55:05;;;;;;;3.07;1.37;;;11.60;99.90;;;;;;5073646;28;20396;-69
2022/09/28 03:57:31;;;;;;;3.30;1.43;;;11.50;99.90;;;;;;5074343;28;20247;-71
2022/09/28 03:59:56;;;;;;;5.23;1.43;;;11.50;99.90;;;;;;5074027;28;20913;-71
2022/09/28 04:02:22;;;;;;;2.50;1.40;;;11.60;99.90;;;;;;5073913;28;20183;-71
2022/09/28 04:04:47;;;;;;;3.70;1.30;;;11.50;99.90;;;;;;5073828;28;20189;-69
2022/09/28 04:07:13;;;;;;;2.20;1.43;;;11.40;99.90;;;;;;5073709;28;20196;-69
2022/09/28 04:09:38;;;;;;;3.83;1.60;;;11.50;99.90;;;;;;5073513;28;20176;-68
2022/09/28 04:12:05;;;;;;;3.83;1.40;;;11.40;99.90;;;;;;5073780;28;20186;-69
2022/09/28 04:14:31;;;;;;;3.00;1.13;;;11.40;99.90;;;;;;5073817;28;20166;-69
2022/09/28 04:16:56;;;;;;;1.50;0.90;;;11.30;99.90;;;;;;5073651;28;20416;-69
2022/09/28 04:19:22;;;;;;;1.40;1.00;;;11.10;99.90;;;;;;5073666;28;20690;-68
2022/09/28 04:21:49;;;;;;;4.80;1.63;;;11.10;99.90;;;;;;5073401;28;20206;-70
2022/09/28 04:24:15;;;;;;;2.10;0.77;;;11.10;99.90;;;;;;5073948;28;20162;-69
2022/09/28 04:26:41;;;;;;;2.83;1.10;;;11.10;99.90;;;;;;5072198;28;20449;-69
2022/09/28 04:29:17;;;;;;;1.93;1.13;;;11.00;99.90;;;;;;5073078;28;20413;-70
2022/09/28 04:31:49;;;;;;;1.70;1.10;;;11.00;99.90;;;;;;5072210;28;20212;-69
2022/09/28 04:34:20;;;;;;;1.00;0.83;;;11.20;99.90;;;;;;5073379;28;20771;-70
2022/09/28 04:36:47;;;;;;;4.03;1.57;;;11.40;99.90;;;;;;5073623;28;20488;-71
2022/09/28 04:39:14;;;;;;;2.03;1.10;;;11.40;99.90;;;;;;5073282;28;20763;-72
2022/09/28 04:41:40;;;;;;;2.17;0.93;;;11.40;99.90;;;;;;5059326;28;21018;-71
2022/09/28 04:44:06;;;;;;;1.77;0.93;;;11.50;99.90;;;;;;5060361;28;20719;-71
2022/09/28 04:46:32;;;;;;;0.90;0.73;;;11.60;99.90;;;;;;5055606;28;20455;-71
2022/09/28 04:48:58;;;;;;;2.53;1.10;;;11.50;99.90;;;;;;5053212;28;20418;-71
2022/09/28 04:51:23;;;;;;;151.90;94.47;;;11.40;99.90;;;;;;5053549;28;20434;-71
2022/09/28 04:53:49;;;;;;;284.03;152.27;;;11.40;99.90;;;;;;5053291;28;20173;-71
2022/09/28 04:56:16;;;;;;;181.00;103.13;;;11.40;99.90;;;;;;5052577;28;20263;-71
2022/09/28 04:58:42;;;;;;;40.77;27.80;;;11.50;99.90;;;;;;5053278;28;20405;-71
2022/09/28 05:01:12;;;;;;;8.40;6.37;;;11.50;99.90;;;;;;5053219;28;20927;-71
2022/09/28 05:03:38;;;;;;;23.70;21.40;;;11.30;99.90;;;;;;5053293;28;20397;-71
2022/09/28 05:06:05;;;;;;;25.80;21.67;;;11.20;99.90;;;;;;5054195;28;20393;-72
2022/09/28 05:08:31;;;;;;;103.40;88.17;;;11.10;99.90;;;;;;5072579;28;20483;-71
2022/09/28 05:11:04;;;;;;;34.63;28.90;;;11.10;99.90;;;;;;5072739;28;20395;-70
2022/09/28 05:13:31;;;;;;;43.80;39.10;;;11.30;99.90;;;;;;5073145;28;20504;-70
2022/09/28 05:15:57;;;;;;;76.63;64.67;;;11.40;99.90;;;;;;5078017;28;20420;-71
2022/09/28 05:18:23;;;;;;;25.27;21.47;;;11.30;99.90;;;;;;5089801;28;20448;-70
2022/09/28 05:20:49;;;;;;;115.33;103.33;;;11.30;99.90;;;;;;5093244;28;20400;-70
2022/09/28 05:23:15;;;;;;;33.90;30.23;;;11.40;99.90;;;;;;5093034;28;20504;-70
2022/09/28 05:25:42;;;;;;;8.00;7.30;;;11.40;99.90;;;;;;5092725;28;20403;-71
2022/09/28 05:28:07;;;;;;;4.70;1.27;;;11.50;99.90;;;;;;5084903;28;21042;-71
2022/09/28 05:30:34;;;;;;;4.07;3.67;;;11.10;99.90;;;;;;5071032;28;20411;-71
2022/09/28 05:33:00;;;;;;;1.70;1.50;;;11.30;99.90;;;;;;5073090;28;20186;-70
2022/09/28 05:35:26;;;;;;;2.60;2.00;;;11.40;99.90;;;;;;5073165;28;20768;-72
2022/09/28 05:37:51;;;;;;;2.60;1.63;;;11.40;99.90;;;;;;5073532;28;20420;-71
2022/09/28 05:40:17;;;;;;;2.90;2.03;;;11.60;99.90;;;;;;5075475;28;20176;-71
2022/09/28 05:42:43;;;;;;;3.53;2.07;;;11.60;99.90;;;;;;5076621;28;20186;-71
2022/09/28 05:45:09;;;;;;;3.13;1.30;;;11.50;99.90;;;;;;5076464;28;20169;-71
2022/09/28 05:47:40;;;;;;;2.10;1.43;;;11.40;99.90;;;;;;5076406;28;20750;-70
2022/09/28 05:50:08;;;;;;;2.50;1.30;;;11.30;99.90;;;;;;5076550;28;20404;-70
2022/09/28 05:52:34;;;;;;;6.53;4.70;;;11.30;99.90;;;;;;5076489;28;20422;-70
2022/09/28 05:55:00;;;;;;;3.80;1.80;;;11.30;99.90;;;;;;5076357;28;20399;-70
2022/09/28 05:57:25;;;;;;;2.77;1.50;;;11.20;99.90;;;;;;5076100;28;20256;-70
2022/09/28 05:59:51;;;;;;;2.33;1.20;;;11.20;99.90;;;;;;5076501;28;20917;-71
2022/09/28 06:02:16;;;;;;;2.40;1.40;;;11.20;99.90;;;;;;5076560;28;20190;-71
2022/09/28 06:04:42;;;;;;;2.10;1.10;;;11.20;99.90;;;;;;5076349;28;20254;-70
2022/09/28 06:07:07;;;;;;;1.63;1.40;;;10.90;99.90;;;;;;5076188;28;20223;-70
2022/09/28 06:09:33;;;;;;;3.07;1.40;;;10.90;99.90;;;;;;5076050;28;20534;-70
2022/09/28 06:11:58;;;;;;;3.20;1.20;;;11.00;99.90;;;;;;5075506;28;20201;-70
2022/09/28 06:14:24;;;;;;;2.40;1.20;;;11.10;99.90;;;;;;5076380;28;20671;-70
2022/09/28 06:16:50;;;;;;;3.00;1.60;;;11.10;99.90;;;;;;5076710;28;20174;-71
2022/09/28 06:19:16;;;;;;;2.30;1.70;;;11.00;99.90;;;;;;5075775;28;20419;-72
2022/09/28 06:21:42;;;;;;;9.23;1.70;;;11.10;99.90;;;;;;5075787;28;20451;-70
2022/09/28 06:24:08;;;;;;;2.23;1.70;;;11.30;99.90;;;;;;5076185;28;20396;-70
2022/09/28 06:26:33;;;;;;;1.63;1.30;;;11.20;99.90;;;;;;5075171;28;20198;-71
2022/09/28 06:29:02;;;;;;;1.77;1.30;;;11.40;99.90;;;;;;5074282;28;20175;-72
2022/09/28 06:31:28;;;;;;;5.80;2.10;;;11.50;99.90;;;;;;5075794;28;20268;-71
2022/09/28 06:33:54;;;;;;;2.70;2.00;;;11.60;99.90;;;;;;5074597;28;20464;-72
2022/09/28 06:36:21;;;;;;;2.60;1.47;;;11.60;99.90;;;;;;5075352;28;20875;-73
2022/09/28 06:38:46;;;;;;;3.13;2.17;;;11.60;99.90;;;;;;5075054;28;20173;-72
2022/09/28 06:41:12;;;;;;;2.37;1.73;;;11.60;99.90;;;;;;5074096;28;20425;-72
2022/09/28 06:43:40;;;;;;;2.83;1.80;;;11.60;99.90;;;;;;5075609;28;20166;-72
2022/09/28 06:46:08;;;;;;;4.80;1.83;;;11.60;99.90;;;;;;5075625;28;20177;-71
2022/09/28 06:48:34;;;;;;;5.00;2.10;;;11.70;99.90;;;;;;5075684;28;20418;-72
2022/09/28 06:51:00;;;;;;;2.60;1.93;;;11.80;99.90;;;;;;5074866;28;20406;-70
2022/09/28 06:53:27;;;;;;;3.03;2.27;;;11.70;99.90;;;;;;5074055;28;20209;-72
2022/09/28 06:55:53;;;;;;;4.20;2.57;;;11.70;99.90;;;;;;5075089;28;20650;-71
2022/09/28 06:58:20;;;;;;;5.17;2.87;;;11.70;99.90;;;;;;5074575;28;20902;-71
2022/09/28 07:00:47;;;;;;;3.20;2.47;;;11.60;99.90;;;;;;5075315;28;20406;-71
2022/09/28 07:03:16;;;;;;;3.10;1.70;;;11.50;99.90;;;;;;5075360;28;20507;-73
2022/09/28 07:05:44;;;;;;;2.80;1.73;;;11.40;99.90;;;;;;5075108;28;20491;-71
2022/09/28 07:08:11;;;;;;;2.23;2.03;;;11.30;99.90;;;;;;5075114;28;20467;-72
2022/09/28 07:10:41;;;;;;;2.50;1.77;;;11.30;99.90;;;;;;5075004;28;20405;-72
2022/09/28 07:13:07;;;;;;;5.17;2.40;;;11.20;99.90;;;;;;5075007;28;20417;-72
2022/09/28 07:15:33;;;;;;;2.50;2.00;;;11.30;99.90;;;;;;5075272;28;20516;-73
2022/09/28 07:18:01;;;;;;;3.93;2.27;;;11.30;99.90;;;;;;5075432;28;20447;-73
2022/09/28 07:20:27;;;;;;;4.80;2.20;;;11.30;99.90;;;;;;5075293;28;20177;-73
2022/09/28 07:23:00;;;;;;;5.80;2.87;;;11.30;99.90;;;;;;5074867;28;20471;-72
2022/09/28 07:25:28;;;;;;;3.63;2.37;;;11.30;99.90;;;;;;5073330;28;20986;-73
2022/09/28 07:27:56;;;;;;;3.83;2.40;;;11.40;99.90;;;;;;5074995;28;20453;-74
2022/09/28 07:30:22;;;;;;;2.90;2.10;;;11.70;99.90;;;;;;5075060;28;20499;-73
2022/09/28 07:32:47;;;;;;;4.53;2.77;;;11.60;99.90;;;;;;5074586;28;20469;-73
2022/09/28 07:35:13;;;;;;;3.70;2.40;;;11.70;99.90;;;;;;5074890;28;20215;-71
2022/09/28 07:37:39;;;;;;;9.60;2.67;;;11.80;99.90;;;;;;5074232;28;20188;-72
2022/09/28 07:42:50;;;;;;;7.20;3.00;;;11.90;99.90;;;;;;5075660;28;20698;-72
2022/09/28 07:45:16;;;;;;;3.67;2.20;;;11.60;99.90;;;;;;5074389;28;20436;-72
2022/09/28 07:47:42;;;;;;;5.83;3.50;;;11.90;99.90;;;;;;5075237;28;20198;-70
2022/09/28 07:50:08;;;;;;;7.13;2.90;;;11.90;99.90;;;;;;5074126;28;20413;-71
2022/09/28 07:52:35;;;;;;;18.93;4.93;;;12.00;99.90;;;;;;5074663;28;20194;-75
2022/09/28 07:55:01;;;;;;;13.93;4.03;;;12.00;99.90;;;;;;5074807;28;20912;-72
2022/09/28 07:57:27;;;;;;;3.53;2.47;;;12.10;99.90;;;;;;5074285;28;20404;-73
2022/09/28 07:59:53;;;;;;;4.80;2.30;;;12.20;99.90;;;;;;5074084;28;20593;-72
2022/09/28 08:02:20;;;;;;;5.10;2.70;;;12.20;99.90;;;;;;5073959;28;20439;-73
2022/09/28 08:04:47;;;;;;;4.73;2.30;;;12.10;99.90;;;;;;5074072;28;20174;-71
2022/09/28 08:07:14;;;;;;;4.13;2.33;;;12.20;99.90;;;;;;5072674;28;20456;-71
2022/09/28 08:09:41;;;;;;;2.30;1.93;;;12.30;99.90;;;;;;5083140;28;20762;-73
2022/09/28 08:12:06;;;;;;;3.37;1.80;;;12.40;99.90;;;;;;5094291;28;20527;-72
2022/09/28 08:14:33;;;;;;;2.13;1.70;;;12.50;99.90;;;;;;5094720;28;20485;-71
2022/09/28 08:17:02;;;;;;;5.03;2.10;;;12.50;99.90;;;;;;5075536;28;20178;-70
2022/09/28 08:21:43;;;;;;;3.67;2.50;;;12.50;99.90;;;;;;5073761;28;20411;-73
2022/09/28 08:22:14;;;;;;;4.80;2.60;;;12.70;99.90;;;;;;5073620;28;20495;-73
2022/09/28 08:24:39;;;;;;;2.50;2.13;;;12.60;99.90;;;;;;5081927;22;21179;-67
2022/09/28 08:27:06;;;;;;;5.63;2.97;;;12.50;99.90;;;;;;5072736;28;20451;-69
2022/09/28 08:29:32;;;;;;;3.10;2.47;;;12.50;99.90;;;;;;5072978;28;20664;-69
2022/09/28 08:32:00;;;;;;;6.67;2.47;;;12.40;99.90;;;;;;5073064;28;20407;-69
2022/09/28 08:34:26;;;;;;;3.43;1.80;;;12.60;99.90;;;;;;5072858;28;20179;-70
2022/09/28 08:36:55;;;;;;;4.23;2.40;;;12.60;99.90;;;;;;5073025;28;20412;-69
2022/09/28 08:39:21;;;;;;;2.37;2.00;;;12.80;99.90;;;;;;5073143;28;20169;-70
2022/09/28 08:42:05;;;;;;;4.50;2.33;;;12.50;99.90;;;;;;5070614;28;20762;-70
2022/09/28 08:44:46;;;;;;;3.83;2.60;;;12.70;99.90;;;;;;5052545;28;20189;-70
2022/09/28 08:50:18;;;;;;;2.30;1.70;;;13.20;99.90;;;;;;5053083;28;20379;-70
2022/09/28 08:52:50;;;;;;;2.93;2.27;;;13.00;99.90;;;;;;5053269;28;20392;-71
2022/09/28 08:55:21;;;;;;;3.77;2.07;;;13.10;99.90;;;;;;5054212;28;20426;-70
2022/09/28 08:57:57;;;;;;;2.40;1.50;;;13.10;99.90;;;;;;5072603;28;20476;-69
2022/09/28 09:00:32;;;;;;;9.70;2.10;;;12.90;99.90;;;;;;5072429;28;20403;-70
2022/09/28 09:02:58;;;;;;;3.13;1.93;;;12.80;99.90;;;;;;5073414;28;20387;-69
2022/09/28 09:05:46;;;;;;;3.20;1.67;;;12.50;99.90;;;;;;5070845;28;20427;-69
2022/09/28 09:08:43;;;;;;;4.20;2.33;;;12.50;99.90;;;;;;5073326;28;20496;-70
2022/09/28 09:11:15;;;;;;;4.57;2.30;;;12.80;99.90;;;;;;5073051;28;20928;-68
2022/09/28 09:13:59;;;;;;;4.07;1.87;;;12.90;99.90;;;;;;5076190;28;20477;-69
2022/09/28 09:16:35;;;;;;;3.63;1.90;;;12.80;99.90;;;;;;5077947;28;20404;-68
2022/09/28 09:19:15;;;;;;;2.50;1.60;;;12.80;99.90;;;;;;5079068;28;20515;-68
2022/09/28 09:22:01;;;;;;;2.77;2.37;;;12.70;99.90;;;;;;5078656;28;20379;-69
2022/09/28 09:24:53;;;;;;;3.47;2.00;;;12.90;99.90;;;;;;5078617;28;20442;-68
2022/09/28 09:27:40;;;;;;;2.30;2.07;;;13.10;99.90;;;;;;5078164;28;20581;-69
2022/09/28 09:30:14;;;;;;;2.90;1.80;;;12.90;99.90;;;;;;5077733;28;20393;-68
2022/09/28 09:32:58;;;;;;;2.60;2.20;;;12.70;99.90;;;;;;5078936;28;20883;-69
2022/09/28 09:35:36;;;;;;;4.37;2.10;;;12.90;99.90;;;;;;5079236;28;20472;-67
2022/09/28 09:38:05;;;;;;;3.00;1.87;;;13.00;99.90;;;;;;5079364;28;20476;-68
2022/09/28 09:40:31;;;;;;;2.97;2.10;;;13.20;99.90;;;;;;5077020;28;20417;-70
2022/09/28 09:43:38;;;;;;;2.57;2.13;;;13.20;99.90;;;;;;5078517;28;20495;-70
2022/09/28 09:46:37;;;;;;;5.27;2.00;;;13.30;99.90;;;;;;5078703;28;20252;-70
2022/09/28 09:49:34;;;;;;;4.67;2.00;;;13.40;99.90;;;;;;5079370;28;20391;-69
2022/09/28 09:52:06;;;;;;;3.70;2.40;;;13.30;99.90;;;;;;5077282;28;20420;-69
2022/09/28 09:54:39;;;;;;;6.67;2.70;;;13.30;99.90;;;;;;5078970;28;20415;-70
2022/09/28 09:57:12;;;;;;;4.07;2.60;;;13.20;99.90;;;;;;5078379;28;20393;-69
2022/09/28 09:59:40;;;;;;;3.40;2.10;;;13.40;99.90;;;;;;5079121;28;20403;-71
2022/09/28 10:02:21;;;;;;;2.90;2.23;;;13.80;99.90;;;;;;5077465;28;20820;-71
2022/09/28 10:04:49;;;;;;;3.10;2.30;;;13.80;99.90;;;;;;5079013;28;20826;-67
2022/09/28 10:07:49;;;;;;;3.30;2.73;;;13.80;99.90;;;;;;5078541;28;20785;-69
2022/09/28 10:10:26;;;;;;;5.83;3.00;;;14.00;99.90;;;;;;5068786;28;20411;-70
2022/09/28 10:12:53;;;;;;;9.33;2.70;;;14.20;99.90;;;;;;5058696;28;20758;-69
2022/09/28 10:15:30;;;;;;;4.87;3.00;;;14.20;99.90;;;;;;5058637;28;20398;-68
2022/09/28 10:17:59;;;;;;;5.40;2.60;;;13.90;99.90;;;;;;5058721;28;20478;-69
2022/09/28 10:20:28;;;;;;;3.70;2.50;;;13.70;99.90;;;;;;5058479;28;20411;-70
2022/09/28 10:23:00;;;;;;;4.60;2.30;;;13.80;99.90;;;;;;5065967;28;20448;-70
2022/09/28 10:25:27;;;;;;;4.67;2.33;;;13.90;99.90;;;;;;5074816;28;20429;-69
2022/09/28 10:27:54;;;;;;;2.93;2.00;;;13.90;99.90;;;;;;5075961;28;20442;-69
2022/09/28 10:30:22;;;;;;;3.67;2.43;;;13.90;99.90;;;;;;5075175;28;20399;-70
2022/09/28 10:32:49;;;;;;;2.60;2.23;;;14.00;99.90;;;;;;5075236;28;20835;-69
2022/09/28 10:35:18;;;;;;;4.40;3.00;;;13.90;99.90;;;;;;5075113;28;20447;-69
2022/09/28 10:38:03;;;;;;;2.93;2.13;;;14.00;99.90;;;;;;5074899;28;21012;-70
2022/09/28 10:40:49;;;;;;;3.53;2.50;;;14.00;99.90;;;;;;5074274;28;20403;-70
2022/09/28 10:43:24;;;;;;;9.67;2.80;;;14.00;99.90;;;;;;5073872;28;20434;-68
2022/09/28 10:46:09;;;;;;;3.53;2.37;;;14.10;99.90;;;;;;5075160;28;20392;-69
2022/09/28 10:48:47;;;;;;;3.17;2.10;;;14.30;99.90;;;;;;5074961;28;20427;-69
2022/09/28 10:51:13;;;;;;;6.17;2.83;;;14.40;99.90;;;;;;5075139;28;20382;-69
2022/09/28 10:53:39;;;;;;;2.60;2.40;;;14.10;99.90;;;;;;5074772;28;20605;-68
2022/09/28 10:56:26;;;;;;;2.87;1.90;;;14.20;99.90;;;;;;5074823;28;20162;-68
2022/09/28 10:58:52;;;;;;;3.23;1.83;;;14.30;99.90;;;;;;5074770;28;20191;-66
2022/09/28 11:01:21;;;;;;;4.97;2.50;;;14.80;99.90;;;;;;5074696;28;20396;-69
2022/09/28 11:03:47;;;;;;;3.40;2.10;;;15.10;99.90;;;;;;5074525;28;20187;-68
2022/09/28 11:06:13;;;;;;;3.30;2.10;;;15.30;99.90;;;;;;5073344;28;20472;-68
2022/09/28 11:08:42;;;;;;;3.87;2.27;;;15.50;99.90;;;;;;5074802;28;20199;-69
2022/09/28 11:11:15;;;;;;;2.27;2.07;;;15.40;99.90;;;;;;5074436;28;20169;-69
2022/09/28 11:13:49;;;;;;;2.10;1.90;;;15.40;99.90;;;;;;5074523;28;20418;-69
2022/09/28 11:16:37;;;;;;;3.83;1.93;;;15.50;99.90;;;;;;5071780;28;20410;-69
2022/09/28 11:19:28;;;;;;;3.33;2.37;;;15.20;99.90;;;;;;5073032;28;20395;-68
2022/09/28 11:21:53;;;;;;;3.20;1.80;;;15.10;99.90;;;;;;5074032;28;20437;-69
2022/09/28 11:24:24;;;;;;;4.20;2.20;;;15.00;99.90;;;;;;5073869;28;20448;-69
2022/09/28 11:26:53;;;;;;;5.50;3.00;;;14.70;99.90;;;;;;5073327;28;20537;-68
2022/09/28 11:29:40;;;;;;;4.30;2.00;;;14.60;99.90;;;;;;5068783;28;20416;-68
2022/09/28 11:32:08;;;;;;;4.03;2.00;;;14.60;99.90;;;;;;5067687;28;20411;-68
2022/09/28 11:34:43;;;;;;;6.70;2.73;;;14.70;99.90;;;;;;5074083;28;20504;-68
2022/09/28 11:37:15;;;;;;;3.10;2.00;;;14.60;99.90;;;;;;5074081;28;20493;-69
2022/09/28 11:39:57;;;;;;;3.60;2.23;;;14.50;99.90;;;;;;5074003;28;20412;-68
2022/09/28 11:42:32;;;;;;;3.23;2.20;;;15.20;99.90;;;;;;5072635;28;20417;-69
2022/09/28 11:45:17;;;;;;;3.73;2.17;;;15.00;99.90;;;;;;5073751;28;20888;-69
2022/09/28 11:48:00;;;;;;;2.93;1.57;;;15.00;99.90;;;;;;5073971;28;20433;-72
2022/09/28 11:50:49;;;;;;;3.87;2.00;;;15.20;99.90;;;;;;5073848;28;20883;-70
2022/09/28 11:53:14;;;;;;;3.40;2.10;;;15.60;99.90;;;;;;5053915;28;20437;-70
2022/09/28 11:55:45;;;;;;;3.83;1.93;;;15.60;99.90;;;;;;5054222;28;20900;-70
2022/09/28 11:58:21;;;;;;;3.20;1.90;;;16.00;99.90;;;;;;5073147;28;20171;-70
2022/09/28 12:00:53;;;;;;;2.13;1.50;;;16.30;99.90;;;;;;5073339;28;20477;-69
2022/09/28 12:03:33;;;;;;;2.93;2.00;;;17.00;99.90;;;;;;5073585;28;20959;-69
2022/09/28 12:06:03;;;;;;;2.80;1.53;;;17.80;99.90;;;;;;5073613;28;20383;-69
2022/09/28 12:08:33;;;;;;;3.00;1.27;;;17.60;99.90;;;;;;5072868;28;21051;-69
2022/09/28 12:11:31;;;;;;;4.00;1.50;;;17.90;99.90;;;;;;5073379;28;20397;-68
2022/09/28 12:14:00;;;;;;;2.63;2.13;;;18.10;99.90;;;;;;5072143;28;20442;-69
2022/09/28 12:16:31;;;;;;;3.00;1.80;;;17.80;99.90;;;;;;5073354;28;20886;-67
2022/09/28 12:19:18;;;;;;;5.10;1.97;;;17.40;99.90;;;;;;5073242;28;20446;-68
2022/09/28 12:21:50;;;;;;;6.43;1.30;;;17.10;99.90;;;;;;5072966;28;20905;-69
2022/09/28 12:24:22;;;;;;;4.47;1.73;;;17.10;99.90;;;;;;5073269;28;21003;-69
2022/09/28 12:26:55;;;;;;;4.57;1.40;;;17.00;99.90;;;;;;5072654;28;20448;-68
2022/09/28 12:29:46;;;;;;;4.40;1.60;;;17.10;99.90;;;;;;5073142;28;20372;-70
2022/09/28 12:32:52;;;;;;;3.77;1.47;;;17.00;99.90;;;;;;5073218;28;20467;-70
2022/09/28 12:35:43;;;;;;;2.37;1.63;;;17.30;99.90;;;;;;5056959;28;20419;-69
2022/09/28 12:38:27;;;;;;;2.70;1.67;;;17.80;99.00;;;;;;5072871;28;20482;-72
2022/09/28 12:41:05;;;;;;;3.60;1.67;;;18.20;98.60;;;;;;5071839;28;20471;-71
2022/09/28 12:43:37;;;;;;;2.30;1.33;;;18.10;97.50;;;;;;5052440;28;20421;-71
2022/09/28 12:46:22;;;;;;;2.13;1.53;;;18.30;98.50;;;;;;5053217;28;20403;-71
2022/09/28 12:48:51;;;;;;;4.37;1.30;;;18.40;98.00;;;;;;5052439;28;20393;-71
2022/09/28 12:51:49;;;;;;;2.27;1.50;;;18.40;97.90;;;;;;5053043;28;20393;-71
2022/09/28 12:54:49;;;;;;;2.80;1.00;;;18.30;98.40;;;;;;5052947;28;20946;-71
2022/09/28 12:57:45;;;;;;;3.40;1.77;;;17.40;98.20;;;;;;5052355;28;20405;-70
2022/09/28 13:00:14;;;;;;;2.20;1.23;;;17.10;98.10;;;;;;5053024;28;20953;-69
2022/09/28 13:02:49;;;;;;;1.50;1.10;;;16.90;98.70;;;;;;5052837;28;20400;-69
2022/09/28 13:05:49;;;;;;;4.80;1.77;;;16.50;98.40;;;;;;5052738;28;20431;-68
2022/09/28 13:08:29;;;;;;;3.77;1.30;;;16.80;98.90;;;;;;5052736;28;20546;-70
2022/09/28 13:11:10;;;;;;;2.27;1.30;;;17.20;99.00;;;;;;5053298;28;20389;-70
2022/09/28 13:14:21;;;;;;;1.43;0.90;;;17.40;98.30;;;;;;5072362;28;21055;-70
2022/09/28 13:17:20;;;;;;;4.87;1.40;;;17.00;97.90;;;;;;5072742;28;20392;-70
2022/09/28 13:20:06;;;;;;;4.33;1.30;;;16.80;99.00;;;;;;5072920;28;20388;-71